EGVA

RAF Fairford

Airport
ICAO code
EGVA
IATA Code
FFD
Summary
ICAO Region
EUR
ICAO Territory
Location

, England

Serving
Fairford
Elevation
286 ft
Coordinates
51° 40' 56" N , 1° 47' 24" W
Metar
EGVA 271001Z AUTO 24004KT 9999 FEW120 03/02 A3014 RMK AO2 DZE01 SLPNO $

Runways

Designator Length Width Surface Rops
9/27 3046 61 ASP No/No

Airport map

Aerial View

SKYbrary Partners:

Safety knowledge contributed by: